Time;durP1;ratioP1;P1;durP2;ratioP2;P2;SDS_P1;SDS_P2;PMS_P1;PMS_P2;Temp;Humidity;BMP_temperature;BMP_pressure;BME280_temperature;BME280_humidity;BME280_pressure;Samples;Min_cycle;Max_cycle;Signal;HPM_P1;HPM_P2
2022/11/13 00:02:13;;;;;;;31.40;18.67;;;2.70;99.90;;;;;;5060033;28;20040;-72
2022/11/13 00:04:38;;;;;;;28.38;17.35;;;2.70;99.90;;;;;;5066506;28;20033;-72
2022/11/13 00:07:04;;;;;;;30.73;18.60;;;2.70;99.90;;;;;;5052625;28;20108;-73
2022/11/13 00:09:30;;;;;;;29.48;17.45;;;2.70;99.90;;;;;;5051609;28;20045;-72
2022/11/13 00:11:55;;;;;;;29.55;18.45;;;2.70;99.90;;;;;;5067107;28;20116;-72
2022/11/13 00:14:21;;;;;;;25.90;17.58;;;2.70;99.90;;;;;;5059063;28;20066;-72
2022/11/13 00:16:46;;;;;;;27.70;18.42;;;2.70;99.90;;;;;;5051653;28;20264;-72
2022/11/13 00:19:12;;;;;;;25.02;16.30;;;2.60;99.90;;;;;;5056612;28;20028;-73
2022/11/13 00:21:37;;;;;;;26.77;16.48;;;2.60;99.90;;;;;;5061091;28;20025;-72
2022/11/13 00:24:03;;;;;;;26.23;16.83;;;2.50;99.90;;;;;;5059281;28;20080;-72
2022/11/13 00:26:30;;;;;;;26.58;16.55;;;2.50;99.90;;;;;;5067670;28;20028;-71
2022/11/13 00:29:00;;;;;;;25.45;17.00;;;2.40;99.90;;;;;;5068732;28;20055;-72
2022/11/13 00:31:27;;;;;;;25.88;17.33;;;2.40;99.90;;;;;;5052482;28;20055;-71
2022/11/13 00:33:53;;;;;;;27.67;17.15;;;2.40;99.90;;;;;;5067208;28;20029;-73
2022/11/13 00:36:21;;;;;;;27.85;18.92;;;2.30;99.90;;;;;;5071968;28;20061;-72
2022/11/13 00:38:47;;;;;;;28.45;18.60;;;2.30;99.90;;;;;;5065637;28;20156;-72
2022/11/13 00:41:12;;;;;;;28.30;17.88;;;2.30;99.90;;;;;;5066102;28;20052;-72
2022/11/13 00:43:39;;;;;;;35.40;19.80;;;2.20;99.90;;;;;;5059364;28;20382;-72
2022/11/13 00:46:05;;;;;;;28.80;17.85;;;2.20;99.90;;;;;;5047832;28;20377;-71
2022/11/13 00:48:31;;;;;;;28.58;18.20;;;2.20;99.90;;;;;;5061097;28;20036;-72
2022/11/13 00:50:57;;;;;;;31.27;18.80;;;2.10;99.90;;;;;;5061991;28;20040;-72
2022/11/13 00:53:22;;;;;;;29.75;18.48;;;2.10;99.90;;;;;;5062636;28;20067;-73
2022/11/13 00:55:48;;;;;;;31.75;19.23;;;2.10;99.90;;;;;;5057921;28;20283;-72
2022/11/13 00:58:14;;;;;;;31.58;17.95;;;2.00;99.90;;;;;;5053452;28;20025;-72
2022/11/13 01:00:41;;;;;;;30.83;18.25;;;;;;;;;;5056255;28;20024;-71
2022/11/13 01:03:07;;;;;;;31.95;17.90;;;1.90;99.90;;;;;;5061063;28;20171;-72
2022/11/13 01:05:40;;;;;;;29.30;18.17;;;1.90;99.90;;;;;;5057592;28;20082;-71
2022/11/13 01:08:06;;;;;;;36.70;19.63;;;1.90;99.90;;;;;;5038596;28;20063;-71
2022/11/13 01:10:33;;;;;;;31.02;19.85;;;1.80;99.90;;;;;;5058985;28;20072;-71
2022/11/13 01:12:59;;;;;;;35.28;22.23;;;1.80;99.90;;;;;;5061529;28;20060;-72
2022/11/13 01:15:25;;;;;;;35.97;23.10;;;1.80;99.90;;;;;;5061937;28;20467;-73
2022/11/13 01:17:53;;;;;;;37.88;22.65;;;1.90;99.90;;;;;;5065945;28;20033;-73
2022/11/13 01:20:20;;;;;;;41.03;23.90;;;1.90;99.90;;;;;;5066939;28;20118;-72
2022/11/13 01:22:45;;;;;;;46.95;27.25;;;2.00;99.90;;;;;;5055643;28;20108;-72
2022/11/13 01:25:11;;;;;;;48.45;27.10;;;2.00;99.90;;;;;;5057963;28;20457;-72
2022/11/13 01:27:36;;;;;;;43.05;24.83;;;2.00;99.90;;;;;;5063110;28;20052;-72
2022/11/13 01:30:03;;;;;;;49.83;26.65;;;1.90;99.90;;;;;;5057103;28;20029;-72
2022/11/13 01:32:28;;;;;;;44.28;25.92;;;1.80;99.90;;;;;;5059446;28;20523;-71
2022/11/13 01:34:54;;;;;;;50.55;27.85;;;1.80;99.90;;;;;;5051532;28;20454;-73
2022/11/13 01:37:20;;;;;;;55.40;28.80;;;1.70;99.90;;;;;;5054809;28;20029;-72
2022/11/13 01:39:45;;;;;;;54.20;28.90;;;1.70;99.90;;;;;;5067163;28;20028;-71
2022/11/13 01:42:11;;;;;;;52.03;28.98;;;;;;;;;;5063661;28;20033;-72
2022/11/13 01:44:46;;;;;;;56.80;29.08;;;;;;;;;;5055688;28;20033;-72
2022/11/13 01:47:12;;;;;;;52.35;27.05;;;;;;;;;;5062780;28;20028;-73
2022/11/13 01:49:40;;;;;;;53.35;27.13;;;;;;;;;;5063028;28;20028;-73
2022/11/13 01:52:11;;;;;;;50.00;26.98;;;;;;;;;;5060716;28;20037;-71
2022/11/13 01:54:40;;;;;;;46.70;26.90;;;;;;;;;;5053014;28;20047;-70
2022/11/13 01:57:06;;;;;;;49.15;27.27;;;;;;;;;;5060896;28;20101;-71
2022/11/13 01:59:35;;;;;;;44.17;24.05;;;;;;;;;;5058966;28;20042;-71
2022/11/13 02:02:01;;;;;;;43.25;23.38;;;;;;;;;;5064962;28;20408;-72
2022/11/13 02:04:28;;;;;;;35.60;23.00;;;;;;;;;;5060681;28;20378;-72
2022/11/13 02:06:56;;;;;;;35.40;21.48;;;;;;;;;;5057948;28;20017;-72
2022/11/13 02:09:24;;;;;;;38.45;22.17;;;;;;;;;;5054534;28;20100;-72
2022/11/13 02:11:52;;;;;;;35.80;21.52;;;;;;;;;;5059337;28;20091;-71
2022/11/13 02:14:19;;;;;;;32.35;20.70;;;;;;;;;;5057959;28;20032;-71
2022/11/13 02:16:46;;;;;;;34.10;21.35;;;;;;;;;;5069799;28;20063;-71
2022/11/13 02:19:16;;;;;;;35.15;21.50;;;;;;;;;;5063943;28;20046;-71
2022/11/13 02:21:42;;;;;;;;;;;;;;;;;;5061465;28;20017;-72
2022/11/13 02:24:11;;;;;;;39.45;22.67;;;;;;;;;;5055361;28;20392;-72
2022/11/13 02:26:37;;;;;;;40.88;24.08;;;;;;;;;;5054980;28;20047;-71
2022/11/13 02:29:03;;;;;;;36.42;22.13;;;;;;;;;;5068761;28;20025;-72
2022/11/13 02:31:29;;;;;;;40.60;25.10;;;;;;;;;;5056750;28;20086;-72
2022/11/13 02:33:55;;;;;;;40.92;24.13;;;;;;;;;;5059364;28;20512;-71
2022/11/13 02:36:22;;;;;;;41.95;26.08;;;;;;;;;;5059991;28;20029;-72
2022/11/13 02:38:49;;;;;;;41.92;24.13;;;;;;;;;;5060702;28;20052;-72
2022/11/13 02:41:15;;;;;;;42.83;24.55;;;;;;;;;;5057220;28;20041;-72
2022/11/13 02:43:41;;;;;;;42.47;23.20;;;;;;;;;;5061739;28;20040;-71
2022/11/13 02:46:07;;;;;;;46.67;25.60;;;;;;;;;;5061910;28;20021;-71
2022/11/13 02:48:33;;;;;;;46.88;25.50;;;;;;;;;;5068836;28;20595;-71
2022/11/13 02:51:00;;;;;;;41.13;24.23;;;;;;;;;;5074958;28;20021;-72
2022/11/13 02:53:26;;;;;;;59.30;26.17;;;;;;;;;;5067257;28;20140;-70
2022/11/13 02:55:52;;;;;;;165.77;32.63;;;;;;;;;;5057608;28;20530;-72
2022/11/13 02:58:18;;;;;;;38.10;23.60;;;;;;;;;;5069493;28;20091;-70
2022/11/13 03:00:44;;;;;;;52.28;27.65;;;;;;;;;;5059625;28;20104;-71
2022/11/13 03:03:10;;;;;;;48.05;26.40;;;;;;;;;;5068079;28;20106;-72
2022/11/13 03:05:35;;;;;;;40.00;25.08;;;;;;;;;;5062343;28;20021;-70
2022/11/13 03:08:01;;;;;;;42.20;23.50;;;;;;;;;;5072477;28;20027;-71
2022/11/13 03:10:27;;;;;;;40.67;24.42;;;;;;;;;;5054646;28;20435;-73
2022/11/13 03:12:53;;;;;;;45.40;27.35;;;;;;;;;;5067535;28;20040;-72
2022/11/13 03:15:19;;;;;;;43.25;24.95;;;;;;;;;;5059911;28;20050;-72
2022/11/13 03:17:45;;;;;;;39.17;23.85;;;;;;;;;;5064193;28;20650;-71
2022/11/13 03:20:11;;;;;;;37.45;24.30;;;;;;;;;;5061812;28;20049;-72
2022/11/13 03:22:37;;;;;;;38.90;23.90;;;;;;;;;;5060455;28;20029;-71
2022/11/13 03:25:04;;;;;;;44.15;23.88;;;;;;;;;;5061704;28;20101;-71
2022/11/13 03:27:30;;;;;;;37.60;23.55;;;;;;;;;;5062380;28;20095;-71
2022/11/13 03:29:56;;;;;;;40.90;23.02;;;;;;;;;;5059273;28;20036;-72
2022/11/13 03:32:22;;;;;;;41.25;21.83;;;;;;;;;;5069557;28;20032;-72
2022/11/13 03:34:48;;;;;;;31.58;19.85;;;;;;;;;;5069168;28;20135;-72
2022/11/13 03:37:15;;;;;;;48.53;21.30;;;;;;;;;;5066537;28;20409;-72
2022/11/13 03:39:41;;;;;;;36.38;20.08;;;;;;;;;;5050989;28;20051;-72
2022/11/13 03:42:07;;;;;;;33.17;20.17;;;;;;;;;;5064530;28;20108;-72
2022/11/13 03:44:33;;;;;;;29.80;19.63;;;;;;;;;;5067942;28;20036;-72
2022/11/13 03:46:58;;;;;;;140.20;25.05;;;;;;;;;;5061562;28;20060;-71
2022/11/13 03:49:25;;;;;;;33.65;20.13;;;;;;;;;;5059315;28;20020;-71
2022/11/13 03:51:51;;;;;;;32.22;18.50;;;;;;;;;;5058770;28;20055;-72
2022/11/13 03:54:17;;;;;;;40.53;22.13;;;;;;;;;;5060258;28;20355;-72
2022/11/13 03:56:43;;;;;;;33.83;21.00;;;;;;;;;;5058661;28;20028;-72
2022/11/13 03:59:08;;;;;;;28.40;19.88;;;;;;;;;;5053138;28;20104;-72
2022/11/13 04:01:34;;;;;;;42.13;24.27;;;;;;;;;;5059384;28;20465;-71
2022/11/13 04:04:00;;;;;;;70.70;24.83;;;;;;;;;;5060428;28;20103;-71
2022/11/13 04:06:26;;;;;;;34.13;20.95;;;;;;;;;;5057262;28;20024;-71
2022/11/13 04:08:53;;;;;;;35.50;22.95;;;;;;;;;;5059889;28;20096;-71
2022/11/13 04:11:19;;;;;;;36.30;22.98;;;;;;;;;;5066136;28;20055;-71
2022/11/13 04:13:45;;;;;;;41.78;23.55;;;;;;;;;;5063927;28;20042;-71
2022/11/13 04:16:11;;;;;;;38.30;22.48;;;;;;;;;;5062313;28;20109;-72
2022/11/13 04:18:37;;;;;;;72.70;28.40;;;;;;;;;;5060675;28;20024;-73
2022/11/13 04:21:04;;;;;;;47.92;25.00;;;;;;;;;;5053770;28;20124;-70
2022/11/13 04:23:30;;;;;;;41.72;24.83;;;;;;;;;;5056346;28;20029;-70
2022/11/13 04:25:56;;;;;;;39.15;24.95;;;;;;;;;;5063488;28;20093;-71
2022/11/13 04:28:22;;;;;;;38.53;24.30;;;;;;;;;;5060011;28;20025;-70
2022/11/13 04:30:48;;;;;;;42.35;24.45;;;;;;;;;;5060682;28;20028;-71
2022/11/13 04:33:14;;;;;;;33.20;22.42;;;;;;;;;;5059678;28;20044;-71
2022/11/13 04:35:44;;;;;;;35.90;22.63;;;;;;;;;;5056945;28;20096;-71
2022/11/13 04:38:10;;;;;;;69.75;23.70;;;;;;;;;;5057595;28;20052;-70
2022/11/13 04:40:36;;;;;;;47.60;24.38;;;;;;;;;;5059802;28;20079;-70
2022/11/13 04:43:02;;;;;;;44.58;22.27;;;;;;;;;;5057157;28;20067;-70
2022/11/13 04:45:28;;;;;;;33.22;21.98;;;;;;;;;;5053676;28;20021;-70
2022/11/13 04:47:54;;;;;;;39.67;22.80;;;;;;;;;;5054165;28;20029;-71
2022/11/13 04:50:20;;;;;;;51.83;25.42;;;;;;;;;;5055876;28;20069;-71
2022/11/13 04:52:46;;;;;;;42.60;23.58;;;;;;;;;;5059232;28;20028;-71
2022/11/13 04:55:12;;;;;;;43.22;24.45;;;;;;;;;;5070254;28;20024;-71
2022/11/13 04:57:39;;;;;;;36.85;22.75;;;;;;;;;;5058376;28;20108;-70
2022/11/13 05:00:05;;;;;;;42.15;24.63;;;;;;;;;;5058311;28;20334;-70
2022/11/13 05:02:32;;;;;;;45.78;25.10;;;;;;;;;;5055034;28;20025;-71
2022/11/13 05:04:58;;;;;;;42.63;24.42;;;;;;;;;;5061523;28;20032;-70
2022/11/13 05:07:25;;;;;;;42.28;23.48;;;;;;;;;;5054747;28;20048;-71
2022/11/13 05:09:51;;;;;;;42.17;24.73;;;;;;;;;;5058005;28;20114;-69
2022/11/13 05:12:17;;;;;;;48.10;24.67;;;;;;;;;;5059871;28;20037;-70
2022/11/13 05:14:43;;;;;;;41.30;24.17;;;;;;;;;;5052423;28;20037;-71
2022/11/13 05:17:10;;;;;;;33.10;22.88;;;;;;;;;;5063498;28;20108;-72
2022/11/13 05:19:36;;;;;;;42.47;23.88;;;;;;;;;;5052404;28;20048;-70
2022/11/13 05:22:02;;;;;;;46.20;24.63;;;;;;;;;;5055543;28;20037;-72
2022/11/13 05:24:28;;;;;;;34.80;21.98;;;;;;;;;;5067650;28;20432;-70
2022/11/13 05:26:54;;;;;;;41.83;23.52;;;;;;;;;;5058934;28;20051;-71
2022/11/13 05:29:20;;;;;;;37.85;22.77;;;;;;;;;;5074715;28;20037;-71
2022/11/13 05:31:46;;;;;;;38.75;23.00;;;;;;;;;;5049604;28;20028;-71
2022/11/13 05:34:13;;;;;;;39.13;24.65;;;;;;;;;;5058800;28;20445;-71
2022/11/13 05:36:39;;;;;;;39.60;24.92;;;;;;;;;;5059374;28;20041;-70
2022/11/13 05:39:04;;;;;;;39.00;23.38;;;;;;;;;;5054129;28;20063;-70
2022/11/13 05:41:31;;;;;;;59.58;25.35;;;2.40;99.90;;;;;;5054462;28;20044;-70
2022/11/13 05:43:57;;;;;;;42.88;24.40;;;2.40;99.90;;;;;;5062609;28;20032;-70
2022/11/13 05:46:26;;;;;;;42.83;25.23;;;2.40;99.90;;;;;;5057127;28;20474;-69
2022/11/13 05:48:57;;;;;;;36.00;22.63;;;2.40;99.90;;;;;;5064364;28;20063;-71
2022/11/13 05:51:28;;;;;;;31.83;20.65;;;2.30;99.90;;;;;;5057528;28;20043;-71
2022/11/13 05:53:55;;;;;;;56.42;22.10;;;2.40;99.90;;;;;;5064556;28;20021;-70
2022/11/13 05:56:23;;;;;;;39.67;21.77;;;2.40;99.90;;;;;;5056953;28;20036;-70
2022/11/13 05:58:49;;;;;;;34.55;19.92;;;2.30;99.90;;;;;;5063379;28;20025;-70
2022/11/13 06:01:18;;;;;;;38.55;20.08;;;2.30;99.90;;;;;;5067250;28;20200;-70
2022/11/13 06:03:45;;;;;;;29.65;18.63;;;2.30;99.90;;;;;;5059789;28;20040;-69
2022/11/13 06:06:13;;;;;;;53.25;18.90;;;2.30;99.90;;;;;;5060652;28;20471;-70
2022/11/13 06:08:39;;;;;;;50.65;19.67;;;2.20;99.90;;;;;;5068316;28;20025;-70
2022/11/13 06:11:08;;;;;;;28.77;18.52;;;2.20;99.90;;;;;;5060531;28;20051;-69
2022/11/13 06:13:33;;;;;;;87.03;21.83;;;2.20;99.90;;;;;;5066558;28;20071;-69
2022/11/13 06:16:04;;;;;;;38.47;19.25;;;2.10;99.90;;;;;;5072496;28;20048;-69
2022/11/13 06:18:31;;;;;;;39.78;19.00;;;2.10;99.90;;;;;;5059422;28;20382;-70
2022/11/13 06:21:01;;;;;;;32.83;18.08;;;2.10;99.90;;;;;;5058356;28;20044;-72
2022/11/13 06:23:27;;;;;;;27.75;18.20;;;2.00;99.90;;;;;;5070292;28;20040;-71
2022/11/13 06:25:59;;;;;;;43.15;18.42;;;2.00;99.90;;;;;;5057754;28;20139;-71
2022/11/13 06:28:24;;;;;;;25.25;16.98;;;2.00;99.90;;;;;;5069472;28;20111;-71
2022/11/13 06:30:50;;;;;;;26.85;17.75;;;1.90;99.90;;;;;;5068561;28;20116;-70
2022/11/13 06:33:16;;;;;;;27.73;18.02;;;1.90;99.90;;;;;;5061745;28;20032;-70
2022/11/13 06:35:41;;;;;;;25.95;16.85;;;1.90;99.90;;;;;;5059758;28;20398;-70
2022/11/13 06:38:07;;;;;;;43.10;19.20;;;1.80;99.90;;;;;;5060846;28;20166;-70
2022/11/13 06:40:32;;;;;;;43.20;18.92;;;1.80;99.90;;;;;;5062474;28;20032;-70
2022/11/13 06:42:58;;;;;;;27.30;18.13;;;1.80;99.90;;;;;;5071772;28;20033;-70
2022/11/13 06:45:23;;;;;;;30.80;19.77;;;1.80;99.90;;;;;;5053638;28;20029;-69
2022/11/13 06:47:49;;;;;;;31.13;18.10;;;1.80;99.90;;;;;;5059239;28;20043;-71
2022/11/13 06:50:14;;;;;;;29.05;18.60;;;1.80;99.90;;;;;;5052820;28;20029;-69
2022/11/13 06:52:40;;;;;;;27.90;18.45;;;1.80;99.90;;;;;;5069431;28;20056;-71
2022/11/13 06:55:06;;;;;;;28.75;18.05;;;1.80;99.90;;;;;;5055010;28;20017;-70
2022/11/13 06:57:31;;;;;;;28.98;19.00;;;1.80;99.90;;;;;;5060445;28;20060;-69
2022/11/13 06:59:57;;;;;;;28.30;18.15;;;1.80;99.90;;;;;;5059319;28;20047;-70
2022/11/13 07:02:23;;;;;;;28.75;17.33;;;1.80;99.90;;;;;;5056357;28;20104;-71
2022/11/13 07:04:48;;;;;;;24.23;15.95;;;1.90;99.90;;;;;;5059757;28;20024;-70
2022/11/13 07:07:14;;;;;;;29.98;17.35;;;1.90;99.90;;;;;;5068353;28;20445;-70
2022/11/13 07:09:39;;;;;;;25.80;16.50;;;1.80;99.90;;;;;;5059532;28;20033;-71
2022/11/13 07:12:05;;;;;;;25.70;17.48;;;1.80;99.90;;;;;;5067023;28;20036;-70
2022/11/13 07:14:31;;;;;;;23.23;17.02;;;1.80;99.90;;;;;;5056200;28;20025;-69
2022/11/13 07:16:56;;;;;;;28.42;18.23;;;1.80;99.90;;;;;;5063974;28;20027;-69
2022/11/13 07:19:22;;;;;;;21.88;16.60;;;1.80;99.90;;;;;;5056350;28;20084;-70
2022/11/13 07:21:47;;;;;;;23.02;16.83;;;1.80;99.90;;;;;;5059410;28;20563;-69
2022/11/13 07:24:13;;;;;;;24.80;17.08;;;1.80;99.90;;;;;;5060867;28;20056;-71
2022/11/13 07:26:39;;;;;;;22.17;15.52;;;1.80;99.90;;;;;;5058968;28;20020;-69
2022/11/13 07:29:04;;;;;;;22.50;15.10;;;1.80;99.90;;;;;;5066499;28;20028;-69
2022/11/13 07:31:30;;;;;;;20.02;14.23;;;1.90;99.90;;;;;;5056753;28;20474;-69
2022/11/13 07:33:55;;;;;;;24.90;16.08;;;1.90;99.90;;;;;;5061982;28;20032;-70
2022/11/13 07:36:21;;;;;;;51.58;16.05;;;1.80;99.90;;;;;;5066473;28;20050;-69
2022/11/13 07:38:47;;;;;;;25.83;14.43;;;1.80;99.90;;;;;;5060127;28;20012;-70
2022/11/13 07:41:12;;;;;;;21.60;14.70;;;1.80;99.90;;;;;;5061118;28;20427;-70
2022/11/13 07:43:38;;;;;;;21.98;15.07;;;1.80;99.90;;;;;;5061774;28;20032;-69
2022/11/13 07:46:03;;;;;;;22.38;13.77;;;1.80;99.90;;;;;;5064835;28;20447;-68
2022/11/13 07:48:29;;;;;;;24.77;13.90;;;1.90;99.90;;;;;;5061145;28;20040;-69
2022/11/13 07:50:59;;;;;;;27.02;14.63;;;1.90;99.90;;;;;;5065234;28;20021;-68
2022/11/13 07:53:24;;;;;;;20.33;13.95;;;1.80;99.90;;;;;;5062009;28;20176;-68
2022/11/13 07:55:50;;;;;;;20.40;14.93;;;1.80;99.90;;;;;;5061622;28;20489;-69
2022/11/13 07:58:16;;;;;;;19.20;14.75;;;1.80;99.90;;;;;;5058999;28;20024;-69
2022/11/13 08:00:41;;;;;;;27.98;14.27;;;1.80;99.90;;;;;;5061458;28;20028;-69
2022/11/13 08:03:10;;;;;;;18.88;13.98;;;1.90;99.90;;;;;;5058785;28;20036;-70
2022/11/13 08:05:37;;;;;;;20.15;13.85;;;1.90;99.90;;;;;;5067343;28;20017;-68
2022/11/13 08:08:03;;;;;;;27.65;14.00;;;1.90;99.90;;;;;;5074666;28;20029;-67
2022/11/13 08:10:29;;;;;;;20.75;13.57;;;1.90;99.90;;;;;;5067970;28;20112;-68
2022/11/13 08:13:00;;;;;;;35.30;15.20;;;2.00;99.90;;;;;;5060864;28;20116;-68
2022/11/13 08:15:26;;;;;;;24.23;14.60;;;2.00;99.90;;;;;;5060013;28;20040;-68
2022/11/13 08:17:56;;;;;;;20.00;14.57;;;2.00;99.90;;;;;;5068535;28;20024;-68
2022/11/13 08:20:22;;;;;;;19.02;14.00;;;2.10;99.90;;;;;;5066116;28;20051;-68
2022/11/13 08:22:48;;;;;;;27.58;14.05;;;2.10;99.90;;;;;;5067241;28;20518;-67
2022/11/13 08:25:14;;;;;;;36.92;14.15;;;2.10;99.90;;;;;;5065691;28;20032;-67
2022/11/13 08:27:39;;;;;;;18.65;13.80;;;2.20;99.90;;;;;;5062313;28;20033;-68
2022/11/13 08:30:05;;;;;;;17.70;13.07;;;2.20;99.90;;;;;;5067255;28;20090;-67
2022/11/13 08:32:31;;;;;;;21.58;14.13;;;2.20;99.90;;;;;;5055317;28;20040;-68
2022/11/13 08:34:57;;;;;;;21.60;15.18;;;2.20;99.90;;;;;;5062056;28;20051;-69
2022/11/13 08:37:22;;;;;;;20.48;15.27;;;2.30;99.90;;;;;;5069077;28;20032;-68
2022/11/13 08:39:48;;;;;;;21.45;14.73;;;2.30;99.90;;;;;;5067788;28;20097;-69
2022/11/13 08:42:13;;;;;;;21.65;15.77;;;2.30;99.90;;;;;;5066519;28;20024;-70
2022/11/13 08:44:39;;;;;;;20.45;15.13;;;2.40;99.90;;;;;;5059608;28;20385;-67
2022/11/13 08:47:04;;;;;;;22.08;15.38;;;2.40;99.90;;;;;;5042876;28;20035;-67
2022/11/13 08:49:30;;;;;;;20.40;14.63;;;2.50;99.90;;;;;;5064899;28;20028;-68
2022/11/13 08:51:56;;;;;;;19.98;14.43;;;2.60;99.90;;;;;;5066517;28;20032;-67
2022/11/13 08:54:21;;;;;;;18.27;13.32;;;2.70;99.90;;;;;;5059710;28;21652;-68
2022/11/13 08:56:47;;;;;;;16.23;12.57;;;2.70;99.90;;;;;;5068471;28;20035;-68
2022/11/13 08:59:13;;;;;;;16.48;13.10;;;2.80;99.90;;;;;;5069590;28;20059;-69
2022/11/13 09:01:39;;;;;;;15.57;11.85;;;2.90;99.90;;;;;;5053501;28;20443;-69
2022/11/13 09:04:04;;;;;;;15.75;11.95;;;3.00;99.90;;;;;;5061299;28;20035;-70
2022/11/13 09:06:30;;;;;;;16.00;12.10;;;3.00;99.90;;;;;;5059138;28;20025;-69
2022/11/13 09:08:55;;;;;;;16.38;13.23;;;3.10;99.90;;;;;;5067410;28;20028;-69
2022/11/13 09:11:21;;;;;;;19.05;13.10;;;3.10;99.90;;;;;;5059330;28;20021;-70
2022/11/13 09:13:47;;;;;;;16.25;12.27;;;3.10;99.90;;;;;;5068356;28;20360;-69
2022/11/13 09:16:12;;;;;;;17.92;12.32;;;3.10;99.90;;;;;;5063587;28;20032;-69
2022/11/13 09:18:38;;;;;;;15.70;12.75;;;3.10;99.90;;;;;;5058432;28;20059;-69
2022/11/13 09:21:04;;;;;;;17.05;11.75;;;3.10;99.90;;;;;;5056492;28;20056;-67
2022/11/13 09:23:30;;;;;;;18.85;12.98;;;3.20;99.90;;;;;;5053311;28;20116;-69
2022/11/13 09:25:56;;;;;;;15.98;11.93;;;3.10;99.90;;;;;;5067609;28;20473;-69
2022/11/13 09:28:21;;;;;;;15.82;11.93;;;3.10;99.90;;;;;;5065863;28;20035;-71
2022/11/13 09:30:47;;;;;;;16.15;12.45;;;3.20;99.90;;;;;;5060650;28;20386;-70
2022/11/13 09:33:15;;;;;;;15.15;11.93;;;3.30;99.90;;;;;;5066516;28;20401;-68
2022/11/13 09:35:42;;;;;;;18.02;12.38;;;3.40;99.90;;;;;;5062868;28;20021;-69
2022/11/13 09:38:13;;;;;;;15.23;12.43;;;3.40;99.90;;;;;;5058451;28;20025;-70
2022/11/13 09:40:59;;;;;;;16.10;12.77;;;3.50;99.90;;;;;;5068632;28;20047;-71
2022/11/13 09:43:43;;;;;;;14.27;11.75;;;3.50;99.90;;;;;;5069332;28;20438;-70
2022/11/13 09:46:35;;;;;;;17.40;12.93;;;3.60;99.90;;;;;;5060632;28;20517;-70
2022/11/13 09:49:12;;;;;;;16.58;12.80;;;3.60;99.90;;;;;;5064158;28;20120;-73
2022/11/13 09:51:38;;;;;;;16.27;13.13;;;3.70;99.90;;;;;;5065599;28;20060;-70
2022/11/13 09:54:11;;;;;;;16.75;12.55;;;3.70;99.90;;;;;;5066142;28;20052;-70
2022/11/13 09:56:49;;;;;;;15.20;11.07;;;3.90;99.90;;;;;;5060747;28;20032;-69
2022/11/13 09:59:22;;;;;;;14.77;11.93;;;4.00;99.90;;;;;;5063239;28;20045;-72
2022/11/13 10:01:57;;;;;;;14.45;11.20;;;4.00;99.90;;;;;;5064351;28;20036;-70
2022/11/13 10:04:51;;;;;;;12.18;10.32;;;4.20;99.90;;;;;;5069988;28;20024;-69
2022/11/13 10:07:35;;;;;;;12.80;10.80;;;4.30;99.90;;;;;;5067550;28;20395;-76
2022/11/13 10:10:29;;;;;;;14.88;11.40;;;4.30;99.90;;;;;;5067295;28;20024;-77
2022/11/13 10:12:57;;;;;;;13.63;11.25;;;4.30;99.90;;;;;;5063238;28;20470;-75
2022/11/13 10:15:24;;;;;;;11.57;9.70;;;4.30;99.90;;;;;;5057276;28;20029;-70
2022/11/13 10:17:59;;;;;;;13.02;9.98;;;4.40;99.90;;;;;;5071647;28;20028;-74
2022/11/13 10:20:36;;;;;;;15.45;10.27;;;4.60;99.90;;;;;;5062014;28;20037;-70
2022/11/13 10:23:19;;;;;;;12.73;10.73;;;4.70;99.90;;;;;;5062432;28;20359;-72
2022/11/13 10:25:45;;;;;;;13.25;11.10;;;4.70;99.90;;;;;;5060867;28;20137;-78
2022/11/13 10:28:22;;;;;;;12.05;10.15;;;4.80;99.90;;;;;;5061851;28;20112;-70
2022/11/13 10:30:48;;;;;;;13.57;10.55;;;4.80;99.90;;;;;;5062300;28;20090;-72
2022/11/13 10:33:17;;;;;;;11.45;9.88;;;5.00;99.90;;;;;;5060965;28;20045;-71
2022/11/13 10:35:53;;;;;;;14.23;10.93;;;5.00;99.90;;;;;;5062633;28;20025;-85
2022/11/13 10:38:34;;;;;;;13.00;10.77;;;5.00;99.90;;;;;;5056653;28;20036;-71
2022/11/13 10:41:19;;;;;;;12.55;10.27;;;5.10;99.90;;;;;;5067085;28;20032;-72
2022/11/13 10:43:54;;;;;;;14.13;11.30;;;5.10;99.90;;;;;;5064983;28;20063;-73
2022/11/13 10:46:23;;;;;;;13.60;11.02;;;5.30;99.90;;;;;;5062132;28;20097;-69
2022/11/13 10:48:49;;;;;;;14.82;11.95;;;5.30;99.90;;;;;;5062376;28;20029;-70
2022/11/13 10:51:25;;;;;;;13.82;11.18;;;5.40;99.90;;;;;;5062460;28;20058;-69
2022/11/13 10:53:52;;;;;;;13.80;10.70;;;5.50;99.90;;;;;;5060464;28;20075;-70
2022/11/13 10:56:30;;;;;;;13.52;11.27;;;5.50;99.90;;;;;;5069089;28;20490;-69
2022/11/13 10:59:11;;;;;;;13.02;10.60;;;5.60;99.90;;;;;;5054831;28;20478;-70
2022/11/13 11:01:38;;;;;;;13.60;10.85;;;5.70;99.90;;;;;;5062156;28;20032;-71
2022/11/13 11:04:05;;;;;;;14.73;11.27;;;5.80;99.90;;;;;;5068891;28;20481;-73
2022/11/13 11:06:34;;;;;;;13.00;10.50;;;5.80;99.90;;;;;;5063612;28;20533;-72
2022/11/13 11:09:28;;;;;;;15.38;11.95;;;5.90;99.90;;;;;;5065732;28;20082;-71
2022/11/13 11:12:15;;;;;;;13.40;11.30;;;6.10;99.90;;;;;;5059113;28;20056;-72
2022/11/13 11:15:00;;;;;;;14.15;10.50;;;6.20;99.90;;;;;;5062521;28;20024;-73
2022/11/13 11:17:43;;;;;;;13.52;10.82;;;6.30;99.90;;;;;;5068225;28;20078;-77
2022/11/13 11:20:47;;;;;;;14.98;11.02;;;6.40;99.90;;;;;;5045431;28;20045;-78
2022/11/13 11:23:34;;;;;;;12.70;9.80;;;6.40;99.90;;;;;;5048787;28;20163;-77
2022/11/13 11:26:08;;;;;;;13.57;10.82;;;6.50;99.90;;;;;;5070632;28;20020;-81
2022/11/13 11:28:48;;;;;;;12.35;10.00;;;6.50;99.90;;;;;;5071344;28;20028;-80
2022/11/13 11:31:27;;;;;;;15.98;11.38;;;6.60;99.90;;;;;;5069006;28;20036;-81
2022/11/13 11:34:13;;;;;;;13.40;10.10;;;6.70;99.90;;;;;;5065131;28;20137;-70
2022/11/13 11:36:58;;;;;;;16.52;11.60;;;6.90;99.90;;;;;;5056893;28;20021;-70
2022/11/13 11:39:45;;;;;;;12.77;10.20;;;7.00;99.90;;;;;;5060720;28;20025;-72
2022/11/13 11:42:33;;;;;;;19.15;11.65;;;7.00;99.90;;;;;;5068396;28;20043;-70
2022/11/13 11:45:24;;;;;;;13.45;10.90;;;7.00;99.90;;;;;;5061833;28;20039;-72
2022/11/13 11:47:50;;;;;;;16.23;11.20;;;7.20;99.90;;;;;;5063634;28;20085;-70
2022/11/13 11:50:22;;;;;;;14.32;11.73;;;7.20;99.90;;;;;;5065810;28;20389;-69
2022/11/13 11:53:14;;;;;;;15.80;11.00;;;7.30;99.90;;;;;;5057098;28;20077;-68
2022/11/13 11:56:00;;;;;;;16.67;12.25;;;7.30;99.90;;;;;;5061223;28;20032;-68
2022/11/13 11:59:08;;;;;;;12.93;10.90;;;7.40;99.90;;;;;;5069342;28;20095;-68
2022/11/13 12:02:05;;;;;;;14.00;11.10;;;7.50;99.90;;;;;;5060096;28;20036;-70
2022/11/13 12:04:56;;;;;;;16.65;11.93;;;7.60;99.90;;;;;;5069228;28;20369;-69
2022/11/13 12:07:32;;;;;;;15.88;12.00;;;7.50;99.90;;;;;;5060472;28;20374;-70
2022/11/13 12:10:16;;;;;;;14.32;10.60;;;7.60;99.90;;;;;;5065605;28;20036;-70
2022/11/13 12:13:00;;;;;;;12.95;10.57;;;7.70;99.90;;;;;;5055282;28;20051;-70
2022/11/13 12:15:57;;;;;;;14.60;11.43;;;7.80;99.90;;;;;;5066104;28;20033;-68
2022/11/13 12:18:52;;;;;;;13.55;10.63;;;7.90;99.90;;;;;;5060821;28;20082;-68
2022/11/13 12:21:33;;;;;;;14.05;10.93;;;8.10;99.90;;;;;;5063188;28;20107;-68
2022/11/13 12:24:02;;;;;;;12.63;9.95;;;8.20;99.90;;;;;;5041922;28;20107;-70
2022/11/13 12:26:36;;;;;;;12.68;10.90;;;8.30;99.90;;;;;;5057707;28;20021;-68
2022/11/13 12:29:29;;;;;;;13.68;11.18;;;8.40;99.90;;;;;;5070118;28;20029;-70
2022/11/13 12:32:07;;;;;;;13.82;10.77;;;8.50;99.90;;;;;;5057415;28;20043;-69
2022/11/13 12:34:38;;;;;;;14.07;11.43;;;8.70;99.90;;;;;;5057814;28;20040;-70
2022/11/13 12:37:11;;;;;;;12.95;11.05;;;8.70;99.90;;;;;;5054160;28;20428;-70
2022/11/13 12:39:47;;;;;;;14.20;10.93;;;8.70;99.90;;;;;;5051077;28;20609;-70
2022/11/13 12:42:19;;;;;;;13.35;10.65;;;8.60;99.90;;;;;;5054068;28;20037;-70
2022/11/13 12:45:02;;;;;;;13.25;10.52;;;8.70;99.90;;;;;;5056507;28;20108;-70
2022/11/13 12:47:28;;;;;;;13.60;9.90;;;8.90;99.90;;;;;;5062108;28;20044;-70
2022/11/13 12:50:04;;;;;;;13.35;10.02;;;9.00;99.90;;;;;;5058000;28;20106;-69
2022/11/13 12:52:29;;;;;;;12.20;9.57;;;9.10;99.90;;;;;;5062529;28;20041;-69
2022/11/13 12:55:09;;;;;;;10.65;9.10;;;9.20;99.90;;;;;;5061822;28;20041;-69
2022/11/13 12:57:45;;;;;;;;;;;9.30;99.90;;;;;;5060940;28;20060;-70
2022/11/13 13:00:25;;;;;;;12.00;8.95;;;9.30;99.90;;;;;;5061032;28;20003;-70
2022/11/13 13:02:58;;;;;;;14.27;9.77;;;9.40;99.90;;;;;;5056591;28;20033;-73
2022/11/13 13:05:38;;;;;;;12.25;9.57;;;9.40;99.90;;;;;;5057960;28;20052;-82
2022/11/13 13:08:30;;;;;;;12.57;10.07;;;9.50;99.90;;;;;;5058368;28;20040;-77
2022/11/13 13:11:11;;;;;;;15.35;10.80;;;9.50;99.90;;;;;;5062416;28;20029;-78
2022/11/13 13:13:48;;;;;;;13.15;10.32;;;9.60;99.90;;;;;;5058562;28;20074;-77
2022/11/13 13:16:24;;;;;;;14.10;10.85;;;9.60;99.90;;;;;;5059254;28;20060;-74
2022/11/13 13:18:50;;;;;;;15.23;10.45;;;9.60;99.90;;;;;;5060276;28;20036;-82